Time;durP1;ratioP1;P1;durP2;ratioP2;P2;SDS_P1;SDS_P2;PMS_P1;PMS_P2;Temp;Humidity;BMP_temperature;BMP_pressure;BME280_temperature;BME280_humidity;BME280_pressure;Samples;Min_cycle;Max_cycle;Signal;HPM_P1;HPM_P2
2023/02/20 00:01:17;;;;;;;26.17;17.40;;;8.20;99.90;;;;;;4993902;28;20046;-78
2023/02/20 00:03:47;;;;;;;21.60;16.03;;;8.10;99.90;;;;;;4993115;28;20534;-78
2023/02/20 00:06:13;;;;;;;23.53;17.17;;;8.10;99.90;;;;;;4998221;28;20039;-78
2023/02/20 00:08:40;;;;;;;24.43;17.50;;;8.10;99.90;;;;;;5000004;28;20030;-78
2023/02/20 00:11:06;;;;;;;22.53;16.70;;;8.10;99.90;;;;;;5021942;28;20038;-78
2023/02/20 00:13:32;;;;;;;24.03;16.83;;;8.10;99.90;;;;;;5011193;28;20046;-78
2023/02/20 00:15:58;;;;;;;24.00;15.60;;;8.00;99.90;;;;;;5012704;28;20031;-78
2023/02/20 00:18:24;;;;;;;23.77;17.23;;;8.00;99.90;;;;;;5024762;28;20038;-78
2023/02/20 00:20:50;;;;;;;24.60;17.97;;;8.00;99.90;;;;;;5030475;28;20046;-78
2023/02/20 00:23:16;;;;;;;22.80;16.43;;;8.00;99.90;;;;;;5037601;28;20022;-78
2023/02/20 00:25:42;;;;;;;21.43;16.03;;;8.00;99.90;;;;;;5013462;28;20037;-78
2023/02/20 00:28:08;;;;;;;18.87;15.37;;;8.00;99.90;;;;;;5042456;28;20022;-78
2023/02/20 00:30:35;;;;;;;19.83;15.37;;;8.00;99.90;;;;;;5027244;28;20042;-78
2023/02/20 00:33:01;;;;;;;23.60;15.53;;;7.90;99.90;;;;;;5008465;28;20057;-78
2023/02/20 00:35:27;;;;;;;19.37;14.50;;;7.90;99.90;;;;;;5013544;28;20029;-78
2023/02/20 00:37:53;;;;;;;22.53;16.23;;;8.00;99.90;;;;;;5012016;28;20690;-78
2023/02/20 00:40:20;;;;;;;25.47;16.43;;;7.90;99.90;;;;;;5016545;28;20045;-78
2023/02/20 00:42:46;;;;;;;18.67;14.90;;;7.90;99.90;;;;;;5021225;28;20034;-78
2023/02/20 00:45:13;;;;;;;19.90;14.93;;;7.80;99.90;;;;;;5016849;28;20034;-77
2023/02/20 00:47:39;;;;;;;19.27;13.87;;;7.80;99.90;;;;;;5013612;28;20022;-78
2023/02/20 00:50:06;;;;;;;17.87;14.30;;;7.80;99.90;;;;;;5047384;28;20033;-78
2023/02/20 00:52:32;;;;;;;16.40;14.43;;;7.80;99.90;;;;;;5045556;28;20026;-78
2023/02/20 00:54:58;;;;;;;17.07;13.33;;;7.70;99.90;;;;;;5025067;28;20487;-78
2023/02/20 00:57:25;;;;;;;16.53;13.67;;;7.70;99.90;;;;;;5029607;28;20022;-78
2023/02/20 00:59:52;;;;;;;17.60;14.03;;;7.70;99.90;;;;;;5038092;28;20391;-79
2023/02/20 01:02:18;;;;;;;17.90;14.27;;;7.70;99.90;;;;;;5029501;28;20049;-78
2023/02/20 01:04:44;;;;;;;16.40;13.50;;;7.60;99.90;;;;;;5010785;28;20456;-78
2023/02/20 01:07:10;;;;;;;15.63;13.10;;;7.60;99.90;;;;;;5035564;28;20033;-78
2023/02/20 01:09:36;;;;;;;16.13;13.70;;;7.60;99.90;;;;;;5027003;28;20036;-78
2023/02/20 01:12:02;;;;;;;16.97;13.67;;;7.60;99.90;;;;;;5030676;28;20034;-78
2023/02/20 01:14:28;;;;;;;14.93;12.83;;;7.60;99.90;;;;;;4994816;28;20038;-78
2023/02/20 01:16:54;;;;;;;15.40;13.60;;;7.50;99.90;;;;;;4999429;28;20390;-78
2023/02/20 01:19:21;;;;;;;17.63;13.63;;;7.50;99.90;;;;;;5014087;28;20038;-78
2023/02/20 01:21:47;;;;;;;15.70;13.63;;;7.50;99.90;;;;;;4999078;28;20050;-78
2023/02/20 01:24:14;;;;;;;17.97;14.20;;;7.50;99.90;;;;;;4997333;28;20022;-78
2023/02/20 01:26:42;;;;;;;20.13;14.13;;;7.50;99.90;;;;;;5013001;28;20045;-78
2023/02/20 01:29:08;;;;;;;18.63;13.83;;;7.50;99.90;;;;;;5009198;28;20053;-78
2023/02/20 01:31:34;;;;;;;17.27;14.20;;;7.50;99.90;;;;;;5028833;28;20045;-78
2023/02/20 01:34:00;;;;;;;15.87;13.37;;;7.50;99.90;;;;;;5006977;28;20474;-78
2023/02/20 01:36:27;;;;;;;17.80;14.50;;;7.50;99.90;;;;;;5015767;28;20026;-78
2023/02/20 01:38:53;;;;;;;15.03;13.30;;;7.50;99.90;;;;;;5046165;28;20442;-78
2023/02/20 01:41:19;;;;;;;16.73;13.33;;;7.50;99.90;;;;;;5040567;28;20399;-78
2023/02/20 01:43:45;;;;;;;18.53;14.30;;;7.30;99.90;;;;;;5026314;28;20042;-78
2023/02/20 01:46:26;;;;;;;19.20;13.50;;;7.30;99.90;;;;;;5008020;28;20037;-78
2023/02/20 01:48:58;;;;;;;;;;;7.30;99.90;;;;;;5013389;28;20037;-78
2023/02/20 01:51:24;;;;;;;;;;;7.20;99.90;;;;;;5008843;28;19909;-78
2023/02/20 01:53:50;;;;;;;18.83;13.57;;;7.20;99.90;;;;;;5012993;28;20269;-78
2023/02/20 01:56:16;;;;;;;18.97;14.60;;;7.20;99.90;;;;;;5045247;28;20040;-78
2023/02/20 01:58:43;;;;;;;17.43;14.40;;;7.10;99.90;;;;;;5041081;28;20025;-78
2023/02/20 02:01:09;;;;;;;20.27;15.03;;;7.10;99.90;;;;;;5022448;28;20086;-78
2023/02/20 02:03:38;;;;;;;20.20;15.33;;;7.10;99.90;;;;;;5025786;28;20030;-78
2023/02/20 02:06:06;;;;;;;21.83;15.63;;;7.10;99.90;;;;;;5011711;28;20033;-78
2023/02/20 02:08:33;;;;;;;17.67;13.23;;;7.10;99.90;;;;;;5001709;28;20042;-78
2023/02/20 02:11:03;;;;;;;18.77;15.13;;;7.10;99.90;;;;;;4991649;28;20023;-78
2023/02/20 02:13:30;;;;;;;20.03;15.43;;;7.10;99.90;;;;;;5025498;28;20025;-78
2023/02/20 02:16:27;;;;;;;19.03;15.30;;;7.10;99.90;;;;;;5009395;28;20373;-78
2023/02/20 02:19:03;;;;;;;19.27;15.20;;;7.00;99.90;;;;;;5003611;28;20038;-78
2023/02/20 02:21:38;;;;;;;20.10;14.43;;;7.00;99.90;;;;;;5043286;28;20045;-78
2023/02/20 02:24:27;;;;;;;23.73;15.83;;;6.90;99.90;;;;;;4996947;28;20048;-78
2023/02/20 02:27:02;;;;;;;22.83;16.83;;;6.60;99.90;;;;;;5039485;28;20033;-78
2023/02/20 02:29:50;;;;;;;22.70;16.03;;;6.60;99.90;;;;;;5011593;28;20025;-78
2023/02/20 02:32:54;;;;;;;22.50;16.33;;;6.80;99.90;;;;;;5008055;28;20042;-78
2023/02/20 02:35:23;;;;;;;22.97;16.10;;;6.90;99.90;;;;;;5019494;28;20029;-78
2023/02/20 02:38:03;;;;;;;20.97;14.60;;;6.80;99.90;;;;;;5015500;28;20106;-78
2023/02/20 02:40:35;;;;;;;22.30;15.30;;;6.80;99.90;;;;;;5017859;28;20054;-78
2023/02/20 02:43:41;;;;;;;22.97;16.30;;;6.80;99.90;;;;;;5009160;28;20030;-78
2023/02/20 02:46:34;;;;;;;21.43;15.87;;;6.80;99.90;;;;;;5004964;28;20038;-78
2023/02/20 02:49:06;;;;;;;26.13;16.53;;;6.70;99.90;;;;;;4976058;28;20513;-78
2023/02/20 02:51:35;;;;;;;21.00;16.20;;;6.70;99.90;;;;;;4974583;28;20039;-78
2023/02/20 02:54:07;;;;;;;22.43;15.57;;;6.70;99.90;;;;;;4942621;28;20460;-78
2023/02/20 02:56:37;;;;;;;21.57;16.00;;;6.70;99.90;;;;;;4989942;28;20045;-78
2023/02/20 02:59:04;;;;;;;21.30;16.08;;;6.70;99.90;;;;;;4956848;28;20384;-78
2023/02/20 03:01:30;;;;;;;23.83;15.63;;;6.60;99.90;;;;;;4952471;28;20046;-78
2023/02/20 03:03:56;;;;;;;20.93;16.23;;;6.60;99.90;;;;;;4967338;28;20038;-78
2023/02/20 03:06:28;;;;;;;21.97;15.97;;;6.60;99.90;;;;;;4971184;28;20053;-78
2023/02/20 03:09:05;;;;;;;21.00;16.77;;;6.60;99.90;;;;;;4941444;28;20431;-78
2023/02/20 03:11:32;;;;;;;37.47;17.80;;;6.60;99.90;;;;;;4939017;28;20054;-78
2023/02/20 03:17:10;;;;;;;32.37;17.63;;;6.50;99.90;;;;;;4977164;28;20041;-78
2023/02/20 03:19:43;;;;;;;31.97;16.43;;;6.50;99.90;;;;;;4981649;28;20708;-78
2023/02/20 03:22:15;;;;;;;36.97;17.20;;;6.60;99.90;;;;;;4946751;28;20058;-78
2023/02/20 03:24:54;;;;;;;59.00;19.20;;;6.30;99.90;;;;;;4991783;28;20033;-78
2023/02/20 03:27:41;;;;;;;41.97;17.77;;;6.30;99.90;;;;;;4981718;28;20051;-78
2023/02/20 03:30:19;;;;;;;25.40;17.87;;;6.40;99.90;;;;;;4989429;28;20364;-78
2023/02/20 03:43:45;;;;;;;33.43;18.13;;;6.00;99.90;;;;;;4980002;28;20045;-78
2023/02/20 03:46:17;;;;;;;28.47;18.07;;;6.00;99.90;;;;;;4986757;28;20042;-78
2023/02/20 03:48:46;;;;;;;26.87;18.00;;;6.10;99.90;;;;;;4987356;28;20038;-78
2023/02/20 03:51:12;;;;;;;26.17;17.37;;;6.20;99.90;;;;;;4989915;28;20042;-78
2023/02/20 03:53:39;;;;;;;36.37;17.27;;;6.20;99.90;;;;;;4990737;28;20489;-78
2023/02/20 03:56:09;;;;;;;52.13;16.70;;;5.90;99.90;;;;;;4971132;28;20408;-78
2023/02/20 03:58:37;;;;;;;57.87;17.57;;;5.70;99.90;;;;;;4984479;28;20031;-78
2023/02/20 04:01:04;;;;;;;25.37;17.33;;;5.60;99.90;;;;;;4977048;28;20047;-78
2023/02/20 04:03:32;;;;;;;23.43;17.50;;;5.70;99.90;;;;;;4994755;28;20045;-78
2023/02/20 04:05:58;;;;;;;57.47;19.00;;;5.60;99.90;;;;;;4971082;28;20391;-78
2023/02/20 04:08:34;;;;;;;77.37;20.17;;;5.80;99.90;;;;;;4990134;28;20045;-78
2023/02/20 04:11:04;;;;;;;20.40;15.73;;;5.90;99.90;;;;;;4984155;28;20038;-78
2023/02/20 04:13:30;;;;;;;26.93;16.63;;;5.90;99.90;;;;;;4991066;28;20513;-78
2023/02/20 04:15:58;;;;;;;26.30;17.20;;;5.70;99.90;;;;;;4990828;28;20039;-78
2023/02/20 04:18:24;;;;;;;21.97;16.93;;;5.60;99.90;;;;;;4986833;28;20034;-78
2023/02/20 04:20:54;;;;;;;38.20;17.13;;;5.50;99.90;;;;;;4966441;28;20057;-79
2023/02/20 04:23:22;;;;;;;27.55;17.35;;;5.40;99.90;;;;;;4990190;28;20022;-78
2023/02/20 04:25:59;;;;;;;21.10;17.73;;;5.40;99.90;;;;;;4988042;28;20038;-78
2023/02/20 04:28:25;;;;;;;45.43;17.70;;;5.30;99.90;;;;;;4972136;28;20483;-78
2023/02/20 04:30:52;;;;;;;26.20;18.17;;;5.40;99.90;;;;;;4987202;28;20042;-78
2023/02/20 04:33:18;;;;;;;38.27;17.93;;;5.60;99.90;;;;;;4993016;28;20025;-78
2023/02/20 04:35:44;;;;;;;203.37;23.00;;;5.50;99.90;;;;;;4989954;28;20035;-78
2023/02/20 04:38:10;;;;;;;70.83;20.13;;;5.70;99.90;;;;;;4990449;28;20057;-78
2023/02/20 04:40:36;;;;;;;24.33;18.23;;;5.60;99.90;;;;;;4989830;28;20034;-79
2023/02/20 04:43:03;;;;;;;107.43;22.70;;;5.70;99.90;;;;;;4979461;28;20511;-78
2023/02/20 04:45:29;;;;;;;79.57;20.20;;;5.80;99.90;;;;;;4982998;28;20515;-79
2023/02/20 04:47:55;;;;;;;180.70;22.83;;;5.90;99.90;;;;;;4988418;28;20034;-78
2023/02/20 04:50:29;;;;;;;134.70;22.73;;;5.90;99.90;;;;;;4979529;28;20031;-80
2023/02/20 04:52:55;;;;;;;91.20;19.50;;;6.00;99.90;;;;;;4993360;28;20029;-78
2023/02/20 04:55:21;;;;;;;38.53;18.03;;;6.00;99.90;;;;;;4995622;28;20029;-78
2023/02/20 04:57:47;;;;;;;23.77;18.77;;;6.10;99.90;;;;;;4993790;28;20031;-78
2023/02/20 05:00:15;;;;;;;31.67;18.37;;;6.00;99.90;;;;;;4998336;28;20033;-78
2023/02/20 05:02:41;;;;;;;25.27;19.57;;;5.70;99.90;;;;;;5010746;28;20034;-78
2023/02/20 05:05:15;;;;;;;21.87;18.67;;;5.60;99.90;;;;;;4982511;28;20034;-78
2023/02/20 05:07:41;;;;;;;23.43;18.67;;;5.40;99.90;;;;;;4972559;28;20034;-78
2023/02/20 05:10:08;;;;;;;31.33;20.10;;;5.10;99.90;;;;;;5010829;28;20034;-78
2023/02/20 05:12:34;;;;;;;25.97;20.67;;;5.10;99.90;;;;;;5013333;28;20033;-78
2023/02/20 05:15:00;;;;;;;41.13;22.60;;;5.20;99.90;;;;;;4994499;28;20068;-78
2023/02/20 05:17:26;;;;;;;82.57;23.37;;;5.30;99.90;;;;;;4994206;28;20031;-78
2023/02/20 05:19:52;;;;;;;382.70;41.67;;;5.50;99.90;;;;;;4957895;28;20035;-78
2023/02/20 05:22:18;;;;;;;27.07;21.73;;;5.50;99.90;;;;;;4992696;28;20053;-78
2023/02/20 05:24:48;;;;;;;31.10;19.33;;;5.70;99.90;;;;;;4994478;28;20030;-78
2023/02/20 05:27:15;;;;;;;28.00;20.17;;;5.70;99.90;;;;;;4997289;28;20026;-78
2023/02/20 05:29:49;;;;;;;25.40;21.43;;;5.80;99.90;;;;;;4998586;28;20035;-78
2023/02/20 05:32:15;;;;;;;24.03;20.97;;;5.50;99.90;;;;;;4978141;28;20395;-78
2023/02/20 05:34:42;;;;;;;37.80;21.40;;;5.50;99.90;;;;;;4986939;28;20034;-78
2023/02/20 05:37:09;;;;;;;33.00;21.43;;;5.30;99.90;;;;;;4977376;28;20046;-78
2023/02/20 05:39:35;;;;;;;32.83;22.30;;;5.30;99.90;;;;;;4990151;28;20361;-78
2023/02/20 05:42:02;;;;;;;50.57;21.37;;;5.30;99.90;;;;;;4975924;28;20103;-78
2023/02/20 05:44:28;;;;;;;28.53;21.87;;;5.20;99.90;;;;;;4976049;28;20037;-78
2023/02/20 05:46:54;;;;;;;41.00;23.60;;;5.10;99.90;;;;;;4974294;28;20046;-78
2023/02/20 05:49:20;;;;;;;37.93;22.00;;;5.00;99.90;;;;;;4983524;28;20033;-78
2023/02/20 05:51:48;;;;;;;167.80;28.30;;;5.00;99.90;;;;;;4992548;28;20030;-78
2023/02/20 05:54:14;;;;;;;48.27;21.87;;;5.20;99.90;;;;;;4993047;28;20035;-78
2023/02/20 05:56:41;;;;;;;30.50;21.50;;;5.30;99.90;;;;;;4993231;28;20113;-78
2023/02/20 05:59:07;;;;;;;29.83;22.07;;;5.40;99.90;;;;;;4994516;28;20031;-78
2023/02/20 06:01:33;;;;;;;25.27;21.20;;;5.30;99.90;;;;;;5012932;28;20045;-78
2023/02/20 06:04:02;;;;;;;31.47;21.97;;;5.10;99.90;;;;;;5013334;28;20033;-78
2023/02/20 06:06:41;;;;;;;28.40;22.13;;;5.10;99.90;;;;;;4992324;28;20507;-78
2023/02/20 06:09:09;;;;;;;34.00;20.13;;;5.00;99.90;;;;;;4976671;28;20061;-78
2023/02/20 06:11:36;;;;;;;32.93;21.13;;;4.60;99.90;;;;;;4977794;28;20041;-78
2023/02/20 06:14:03;;;;;;;136.83;24.93;;;4.50;99.90;;;;;;4977513;28;20041;-78
2023/02/20 06:16:29;;;;;;;130.77;25.40;;;4.70;99.90;;;;;;4993020;28;20038;-78
2023/02/20 06:18:55;;;;;;;39.43;22.20;;;4.90;99.90;;;;;;4974748;28;20412;-78
2023/02/20 06:21:23;;;;;;;30.07;21.33;;;4.90;99.90;;;;;;4990679;28;20066;-78
2023/02/20 06:23:50;;;;;;;29.20;22.60;;;4.80;99.90;;;;;;4992845;28;20234;-78
2023/02/20 06:26:16;;;;;;;33.27;22.73;;;4.90;99.90;;;;;;4992696;28;20033;-78
2023/02/20 06:28:43;;;;;;;33.93;22.17;;;4.80;99.90;;;;;;4992569;28;20041;-78
2023/02/20 06:31:09;;;;;;;49.30;21.23;;;4.90;99.90;;;;;;4992307;28;20046;-78
2023/02/20 06:33:35;;;;;;;211.37;26.97;;;4.80;99.90;;;;;;4976578;28;20049;-78
2023/02/20 06:36:01;;;;;;;162.80;27.60;;;4.90;99.90;;;;;;4991703;28;20034;-78
2023/02/20 06:38:27;;;;;;;329.27;32.83;;;5.10;99.90;;;;;;4993576;28;20023;-88
2023/02/20 06:40:53;;;;;;;1424.27;116.63;;;5.40;99.90;;;;;;4977763;28;20495;-89
2023/02/20 06:43:20;;;;;;;74.93;22.13;;;5.80;99.90;;;;;;4994619;28;20045;-78
2023/02/20 06:45:46;;;;;;;107.37;22.50;;;6.00;99.90;;;;;;4986697;28;20035;-78
2023/02/20 06:48:16;;;;;;;69.77;20.80;;;6.00;99.90;;;;;;4994041;28;20033;-78
2023/02/20 06:50:42;;;;;;;237.30;24.00;;;5.80;99.90;;;;;;4990961;28;20042;-78
2023/02/20 06:53:08;;;;;;;230.93;26.07;;;5.80;99.90;;;;;;4992204;28;20041;-78
2023/02/20 06:55:34;;;;;;;41.40;20.27;;;5.80;99.90;;;;;;4975948;28;20030;-78
2023/02/20 06:58:00;;;;;;;29.30;21.53;;;5.70;99.90;;;;;;4993403;28;20034;-78
2023/02/20 07:00:26;;;;;;;40.63;21.00;;;5.70;99.90;;;;;;4988687;28;20034;-79
2023/02/20 07:02:52;;;;;;;79.53;21.13;;;5.30;99.90;;;;;;4987788;28;20049;-80
2023/02/20 07:05:18;;;;;;;96.70;22.27;;;5.10;99.90;;;;;;4980169;28;20022;-79
2023/02/20 07:07:45;;;;;;;52.37;20.20;;;5.20;99.90;;;;;;4972462;28;20039;-77
2023/02/20 07:10:11;;;;;;;50.37;22.70;;;5.10;99.90;;;;;;4973095;28;20042;-77
2023/02/20 07:12:37;;;;;;;70.67;23.07;;;4.90;99.90;;;;;;4990528;28;20038;-77
2023/02/20 07:15:04;;;;;;;61.70;21.63;;;5.00;99.90;;;;;;4973672;28;20053;-77
2023/02/20 07:17:30;;;;;;;51.13;23.03;;;4.90;99.90;;;;;;4972849;28;20037;-78
2023/02/20 07:19:58;;;;;;;85.67;22.87;;;4.80;99.90;;;;;;4986401;28;20038;-78
2023/02/20 07:22:24;;;;;;;95.93;23.77;;;4.80;99.90;;;;;;4976083;28;20506;-76
2023/02/20 07:24:53;;;;;;;217.97;27.90;;;4.80;99.90;;;;;;4992365;28;20030;-77
2023/02/20 07:27:19;;;;;;;65.70;20.83;;;4.80;99.90;;;;;;4991860;28;20046;-79
2023/02/20 07:29:46;;;;;;;66.30;22.10;;;4.80;99.90;;;;;;4976088;28;20043;-80
2023/02/20 07:32:13;;;;;;;86.97;21.67;;;4.60;99.90;;;;;;4974458;28;20042;-81
2023/02/20 07:34:39;;;;;;;85.77;21.27;;;4.60;99.90;;;;;;4967411;28;20495;-80
2023/02/20 07:37:05;;;;;;;56.60;20.97;;;4.60;99.90;;;;;;4984634;28;20038;-81
2023/02/20 07:39:31;;;;;;;49.43;18.07;;;4.50;99.90;;;;;;4972247;28;20122;-83
2023/02/20 07:41:57;;;;;;;155.90;23.27;;;4.40;99.90;;;;;;4991151;28;20054;-82
2023/02/20 07:44:23;;;;;;;169.60;23.03;;;4.30;99.90;;;;;;4991092;28;20042;-80
2023/02/20 07:46:50;;;;;;;150.80;21.83;;;4.50;99.90;;;;;;4974570;28;20043;-81
2023/02/20 07:49:16;;;;;;;76.73;20.80;;;4.70;99.90;;;;;;4985330;28;20034;-80
2023/02/20 07:51:42;;;;;;;214.93;24.10;;;4.60;99.90;;;;;;4990623;28;20061;-81
2023/02/20 07:54:08;;;;;;;70.97;20.63;;;4.50;99.90;;;;;;4991524;28;20030;-81
2023/02/20 07:56:34;;;;;;;92.80;20.77;;;4.40;99.90;;;;;;4992877;28;20373;-81
2023/02/20 07:59:00;;;;;;;361.07;27.47;;;4.40;99.90;;;;;;4991092;28;20046;-82
2023/02/20 08:01:26;;;;;;;181.47;24.03;;;4.50;99.90;;;;;;4992287;28;20046;-82
2023/02/20 08:03:52;;;;;;;61.40;19.70;;;4.70;99.90;;;;;;4988401;28;20037;-80
2023/02/20 08:06:18;;;;;;;60.63;19.67;;;4.70;99.90;;;;;;4981716;28;20473;-81
2023/02/20 08:08:51;;;;;;;71.60;20.73;;;4.40;99.90;;;;;;4973272;28;20511;-82
2023/02/20 08:11:17;;;;;;;37.60;20.27;;;4.20;99.90;;;;;;4980361;28;20037;-79
2023/02/20 08:13:44;;;;;;;67.10;21.20;;;4.20;99.90;;;;;;4990327;28;20399;-83
2023/02/20 08:16:10;;;;;;;45.00;19.20;;;4.40;99.90;;;;;;4989663;28;20039;-83
2023/02/20 08:18:36;;;;;;;76.83;23.10;;;4.40;99.90;;;;;;4991407;28;20037;-84
2023/02/20 08:21:02;;;;;;;152.53;24.30;;;4.40;99.90;;;;;;4991012;28;20054;-82
2023/02/20 08:23:28;;;;;;;197.97;27.43;;;4.60;99.90;;;;;;4990901;28;20484;-80
2023/02/20 08:25:55;;;;;;;67.30;21.70;;;4.70;99.90;;;;;;4991874;28;20037;-83
2023/02/20 08:28:21;;;;;;;62.87;20.47;;;4.60;99.90;;;;;;4991486;28;20026;-82
2023/02/20 08:30:47;;;;;;;158.73;24.13;;;4.60;99.90;;;;;;4989402;28;20038;-82
2023/02/20 08:33:14;;;;;;;69.20;21.27;;;4.60;99.90;;;;;;4992482;28;20026;-83
2023/02/20 08:35:40;;;;;;;68.40;21.83;;;4.50;99.90;;;;;;4990304;28;20041;-80
2023/02/20 08:38:20;;;;;;;74.37;21.47;;;4.50;99.90;;;;;;4990993;28;20026;-82
2023/02/20 08:40:46;;;;;;;80.10;21.17;;;4.40;99.90;;;;;;4987387;28;20034;-82
2023/02/20 08:43:13;;;;;;;105.63;21.80;;;4.40;99.90;;;;;;4990784;28;20047;-82
2023/02/20 08:45:39;;;;;;;36.43;19.93;;;4.40;99.90;;;;;;4975738;28;20049;-82
2023/02/20 08:48:05;;;;;;;39.93;19.87;;;4.60;99.90;;;;;;4993068;28;20050;-83
2023/02/20 08:50:31;;;;;;;226.63;23.93;;;4.60;99.90;;;;;;4994422;28;20030;-82
2023/02/20 08:52:58;;;;;;;76.43;20.90;;;4.60;99.90;;;;;;4976446;28;20041;-81
2023/02/20 08:55:24;;;;;;;62.07;23.37;;;4.80;99.90;;;;;;4993279;28;20034;-81
2023/02/20 08:57:51;;;;;;;66.20;23.27;;;4.90;99.90;;;;;;4980593;28;20039;-81
2023/02/20 09:00:18;;;;;;;83.70;22.27;;;4.90;99.90;;;;;;4982733;28;20464;-82
2023/02/20 09:02:46;;;;;;;48.63;22.47;;;4.90;99.90;;;;;;4981124;28;20057;-80
2023/02/20 09:05:12;;;;;;;55.73;24.47;;;4.80;99.90;;;;;;4982024;28;20486;-81
2023/02/20 09:07:38;;;;;;;53.33;24.53;;;4.90;99.90;;;;;;4974093;28;20050;-82
2023/02/20 09:10:05;;;;;;;54.57;27.47;;;4.80;99.90;;;;;;4993038;28;20043;-82
2023/02/20 09:12:31;;;;;;;68.20;26.17;;;4.80;99.90;;;;;;4987528;28;20057;-81
2023/02/20 09:15:01;;;;;;;47.80;24.60;;;5.00;99.90;;;;;;4988619;28;20035;-81
2023/02/20 09:17:27;;;;;;;53.27;26.20;;;4.80;99.90;;;;;;4997387;28;20038;-81
2023/02/20 09:19:53;;;;;;;79.40;26.60;;;4.90;99.90;;;;;;4997585;28;20045;-80
2023/02/20 09:22:23;;;;;;;94.03;27.17;;;5.00;99.90;;;;;;5034046;28;20503;-80
2023/02/20 09:24:50;;;;;;;69.10;27.47;;;5.00;99.90;;;;;;5038965;28;20033;-81
2023/02/20 09:27:16;;;;;;;51.10;28.83;;;5.10;99.90;;;;;;4993840;28;20045;-80
2023/02/20 09:29:43;;;;;;;111.53;31.93;;;5.10;99.90;;;;;;5013974;28;20049;-80
2023/02/20 09:32:10;;;;;;;77.67;27.73;;;5.20;99.90;;;;;;4996941;28;20037;-80
2023/02/20 09:34:36;;;;;;;74.30;30.17;;;5.10;99.90;;;;;;4997157;28;20376;-80
2023/02/20 09:37:02;;;;;;;75.30;36.80;;;5.10;99.90;;;;;;5012872;28;20036;-80
2023/02/20 09:39:28;;;;;;;85.87;40.60;;;5.30;99.90;;;;;;5027240;28;20459;-80
2023/02/20 09:42:03;;;;;;;83.53;39.67;;;5.60;99.90;;;;;;5028108;28;20034;-80
2023/02/20 09:44:40;;;;;;;71.93;37.97;;;5.60;99.90;;;;;;5011241;28;20037;-80
2023/02/20 09:47:29;;;;;;;54.37;30.77;;;5.60;99.90;;;;;;5012379;28;20483;-83
2023/02/20 09:50:00;;;;;;;49.87;30.17;;;5.40;99.90;;;;;;5003997;28;20475;-82
2023/02/20 09:52:26;;;;;;;46.83;30.73;;;5.40;99.90;;;;;;5010874;28;20037;-81
2023/02/20 09:54:57;;;;;;;57.57;30.27;;;5.60;99.90;;;;;;5032024;28;20030;-80
2023/02/20 09:57:25;;;;;;;62.67;27.73;;;5.70;99.90;;;;;;5012576;28;20026;-80
2023/02/20 09:59:53;;;;;;;85.23;25.43;;;5.80;99.90;;;;;;5033934;28;20041;-80
2023/02/20 10:02:27;;;;;;;40.23;24.73;;;5.80;99.90;;;;;;5010784;28;20042;-81
2023/02/20 10:04:55;;;;;;;52.07;25.87;;;5.90;99.90;;;;;;4997829;28;20042;-81
2023/02/20 10:07:36;;;;;;;38.17;25.93;;;6.00;99.90;;;;;;5023878;28;20030;-81
2023/02/20 10:10:17;;;;;;;33.30;21.40;;;6.20;99.90;;;;;;5046330;28;20352;-79
2023/02/20 10:12:52;;;;;;;39.97;24.85;;;6.30;99.90;;;;;;5023860;28;20026;-80
2023/02/20 10:15:25;;;;;;;43.70;22.50;;;6.20;99.90;;;;;;4998925;28;20030;-79
2023/02/20 10:18:06;;;;;;;35.77;22.97;;;6.20;99.90;;;;;;5045405;28;20036;-80
2023/02/20 10:20:51;;;;;;;51.88;22.70;;;6.40;99.90;;;;;;5009766;28;20352;-80
2023/02/20 10:23:35;;;;;;;35.53;23.30;;;6.60;99.90;;;;;;5016835;28;20387;-81
2023/02/20 10:26:08;;;;;;;36.33;23.97;;;7.00;99.90;;;;;;5011644;28;20038;-83
2023/02/20 10:28:34;;;;;;;34.80;24.13;;;6.80;99.90;;;;;;5011931;28;20034;-83
2023/02/20 10:31:04;;;;;;;30.87;21.73;;;6.70;99.90;;;;;;5012597;28;20041;-83
2023/02/20 10:33:38;;;;;;;31.77;21.53;;;6.70;99.90;;;;;;5033974;28;20208;-82
2023/02/20 10:36:07;;;;;;;30.20;19.27;;;6.50;99.90;;;;;;5008505;28;20484;-82
2023/02/20 10:38:43;;;;;;;34.90;21.23;;;6.50;99.90;;;;;;5023215;28;20037;-81
2023/02/20 10:41:34;;;;;;;40.97;23.23;;;6.50;99.90;;;;;;4997115;28;20022;-84
2023/02/20 10:44:09;;;;;;;31.87;23.20;;;6.60;99.90;;;;;;4995324;28;20042;-84
2023/02/20 10:46:39;;;;;;;37.83;25.67;;;6.50;99.90;;;;;;5012320;28;20042;-83
2023/02/20 10:49:08;;;;;;;36.93;27.63;;;6.50;99.90;;;;;;4992395;28;20045;-80
2023/02/20 10:51:38;;;;;;;38.93;29.40;;;6.70;99.90;;;;;;5009993;28;20035;-83
2023/02/20 10:54:17;;;;;;;34.75;28.60;;;6.80;99.90;;;;;;5004523;28;20403;-82
2023/02/20 10:57:04;;;;;;;36.87;25.20;;;6.90;99.90;;;;;;5015783;28;20034;-81
2023/02/20 10:59:50;;;;;;;35.33;25.23;;;7.10;99.90;;;;;;5008113;28;20040;-84
2023/02/20 11:02:24;;;;;;;38.73;27.07;;;7.00;99.90;;;;;;5010624;28;20429;-80
2023/02/20 11:05:06;;;;;;;32.80;24.67;;;7.20;99.90;;;;;;4990924;28;20042;-87
2023/02/20 11:07:32;;;;;;;31.87;25.70;;;7.30;99.90;;;;;;5027074;28;20030;-92
2023/02/20 11:09:58;;;;;;;31.47;17.60;;;7.30;99.90;;;;;;5044770;28;20037;-87
2023/02/20 11:12:27;;;;;;;28.50;21.13;;;7.40;99.90;;;;;;5020520;28;20458;-91
2023/02/20 11:14:55;;;;;;;23.57;18.70;;;7.50;99.90;;;;;;5012532;28;20061;-90
2023/02/20 11:17:26;;;;;;;27.67;19.17;;;7.60;99.90;;;;;;4978060;28;20050;-87
2023/02/20 11:20:03;;;;;;;17.98;15.85;;;7.70;99.90;;;;;;5008811;28;20387;-86
2023/02/20 11:22:45;;;;;;;26.47;19.93;;;7.70;99.90;;;;;;5011652;28;20503;-88
2023/02/20 11:25:15;;;;;;;24.70;19.23;;;7.70;99.90;;;;;;5007913;28;20037;-87
2023/02/20 11:27:41;;;;;;;22.73;19.50;;;7.70;99.90;;;;;;5009561;28;20387;-89
2023/02/20 11:30:30;;;;;;;26.90;20.08;;;7.80;99.90;;;;;;5012778;28;20034;-85
2023/02/20 11:33:17;;;;;;;17.17;12.27;;;8.00;99.90;;;;;;5014493;28;20440;-89
2023/02/20 11:35:47;;;;;;;24.88;20.13;;;8.10;99.90;;;;;;5010117;28;20483;-82
2023/02/20 11:38:22;;;;;;;24.10;18.73;;;8.20;99.90;;;;;;5025375;28;20033;-86
2023/02/20 11:40:55;;;;;;;22.30;16.95;;;8.40;99.90;;;;;;4992560;28;20037;-90
2023/02/20 11:43:26;;;;;;;22.67;17.17;;;8.60;99.90;;;;;;5011525;28;20068;-85
2023/02/20 11:46:11;;;;;;;;;;;8.80;99.90;;;;;;5011016;28;20272;-86
2023/02/20 11:48:37;;;;;;;23.25;16.77;;;9.00;99.90;;;;;;5012249;28;19905;-80
2023/02/20 11:51:03;;;;;;;18.17;14.40;;;9.10;99.90;;;;;;5015133;28;20037;-79
2023/02/20 11:53:31;;;;;;;20.98;17.40;;;9.10;99.90;;;;;;5009064;28;20033;-81
2023/02/20 11:56:13;;;;;;;18.58;15.98;;;9.30;99.90;;;;;;5036843;28;20023;-83
2023/02/20 11:58:40;;;;;;;19.85;15.32;;;9.50;99.90;;;;;;5007678;28;20547;-82
2023/02/20 12:01:06;;;;;;;17.15;14.00;;;9.60;99.90;;;;;;5027647;28;20506;-82
2023/02/20 12:03:33;;;;;;;19.50;14.93;;;9.60;99.90;;;;;;5022730;28;20050;-82
2023/02/20 12:06:20;;;;;;;18.83;14.95;;;9.70;99.90;;;;;;5001529;28;20065;-82
2023/02/20 12:08:54;;;;;;;17.60;14.05;;;10.00;99.90;;;;;;4995517;28;20041;-82
2023/02/20 12:11:21;;;;;;;17.52;13.95;;;10.20;99.90;;;;;;4977958;28;20045;-82
2023/02/20 12:13:48;;;;;;;15.75;13.55;;;10.50;99.90;;;;;;5011182;28;20036;-83
2023/02/20 12:16:17;;;;;;;16.48;13.57;;;10.70;99.90;;;;;;4994308;28;20034;-83
2023/02/20 12:18:52;;;;;;;16.50;14.73;;;10.80;99.90;;;;;;5011804;28;20034;-83
2023/02/20 12:21:37;;;;;;;16.88;15.13;;;10.70;99.90;;;;;;5011729;28;20041;-83
2023/02/20 12:24:09;;;;;;;17.55;14.82;;;10.80;99.90;;;;;;5041844;28;20053;-82
2023/02/20 12:26:58;;;;;;;17.63;14.52;;;10.80;99.90;;;;;;5012691;28;20064;-82
2023/02/20 12:29:48;;;;;;;20.70;13.85;;;11.00;99.90;;;;;;5047440;28;20034;-82
2023/02/20 12:32:34;;;;;;;17.60;13.98;;;11.10;99.90;;;;;;5045596;28;20038;-81
2023/02/20 12:35:30;;;;;;;20.13;14.80;;;11.20;99.90;;;;;;5038283;28;20051;-80
2023/02/20 12:38:15;;;;;;;17.88;12.65;;;11.50;99.90;;;;;;4994796;28;20400;-82
2023/02/20 12:40:52;;;;;;;20.73;13.90;;;11.70;99.90;;;;;;5002295;28;20029;-82
2023/02/20 12:43:26;;;;;;;14.52;11.63;;;11.70;99.90;;;;;;5015407;28;20038;-82
2023/02/20 12:46:02;;;;;;;13.68;11.43;;;11.90;99.90;;;;;;5030128;28;20766;-82
2023/02/20 12:48:30;;;;;;;11.32;9.57;;;11.80;99.90;;;;;;5011025;28;20043;-82
2023/02/20 12:51:11;;;;;;;11.45;8.80;;;11.80;99.90;;;;;;5010338;28;20396;-82
2023/02/20 12:53:47;;;;;;;13.45;11.38;;;11.80;99.90;;;;;;5006015;28;20077;-82
2023/02/20 12:56:41;;;;;;;11.73;10.13;;;11.90;99.90;;;;;;5047133;28;20041;-82
2023/02/20 12:59:38;;;;;;;20.50;10.50;;;12.00;99.90;;;;;;5013704;28;20042;-82
2023/02/20 13:02:23;;;;;;;12.00;9.43;;;12.30;99.90;;;;;;5001468;28;20505;-80
2023/02/20 13:04:54;;;;;;;13.88;10.45;;;12.40;99.90;;;;;;4997799;28;20045;-82